Victoriaville, Canada
Current Conditions -  °F | °C
As of 7:00 PM on Saturday 20 Dec 2014 (Local Time) from CYRQ Reporting Station
Haze Haze  
Wind Chill:   Ceiling: Unl
Heat Index:   Visibility: 5mi
Dew Point:   Wind: 3mph
Humidity: 92%   Direction: 50°NE
Pressure: 30.36"   Gusts: NA
Location:  46.05°N, 71.97°W
Report Text: CYRQ 210000Z AUTO 05003KT 5SM BR CLR M16/M17 A3036 RMK SLP287
Loading
Personal Weather Stations






























Interactive Weather Map New forecast layout! Learn more

10-Day Weather Forecast

Advertisements
Track Severe Weather on mobile